createdAt,value
2017-11-06T00:00:18.478Z,17.83
2017-11-06T00:02:46.871Z,28.43
2017-11-06T00:05:15.227Z,20.00
2017-11-06T00:07:43.596Z,19.90
2017-11-06T00:10:11.978Z,19.40
2017-11-06T00:12:40.350Z,19.57
2017-11-06T00:15:08.734Z,23.93
2017-11-06T00:17:37.128Z,20.80
2017-11-06T00:20:05.512Z,26.73
2017-11-06T00:22:33.872Z,24.70
2017-11-06T00:25:02.245Z,23.03
2017-11-06T00:27:30.608Z,22.83
2017-11-06T00:29:58.970Z,18.70
2017-11-06T00:32:27.327Z,23.77
2017-11-06T00:34:55.713Z,26.03
2017-11-06T00:37:24.090Z,31.73
2017-11-06T00:39:52.450Z,27.00
2017-11-06T00:42:20.826Z,28.90
2017-11-06T00:44:49.189Z,31.63
2017-11-06T00:47:17.547Z,30.33
2017-11-06T00:49:45.913Z,29.07
2017-11-06T00:52:14.284Z,34.43
2017-11-06T00:54:42.658Z,32.73
2017-11-06T00:57:11.012Z,30.47
2017-11-06T00:59:39.402Z,26.20
2017-11-06T01:02:07.779Z,25.70
2017-11-06T01:04:36.140Z,29.33
2017-11-06T01:07:04.499Z,31.90
2017-11-06T01:09:32.855Z,31.67
2017-11-06T01:12:01.263Z,30.83
2017-11-06T01:14:29.617Z,41.67
2017-11-06T01:16:57.976Z,30.00
2017-11-06T01:19:26.332Z,23.83
2017-11-06T01:21:54.684Z,20.67
2017-11-06T01:24:23.030Z,27.73
2017-11-06T01:26:51.386Z,23.67
2017-11-06T01:29:19.760Z,23.87
2017-11-06T01:31:48.123Z,28.37
2017-11-06T01:34:16.485Z,29.53
2017-11-06T01:36:44.863Z,21.60
2017-11-06T01:39:13.250Z,29.60
2017-11-06T01:41:41.615Z,28.00
2017-11-06T01:44:09.992Z,23.30
2017-11-06T01:46:38.355Z,28.47
2017-11-06T01:49:06.735Z,28.20
2017-11-06T01:51:35.107Z,26.73
2017-11-06T01:54:03.487Z,24.93
2017-11-06T01:56:31.870Z,20.73
2017-11-06T01:59:00.223Z,28.93
2017-11-06T02:01:28.608Z,23.00
2017-11-06T02:03:56.992Z,27.42
2017-11-06T02:06:25.395Z,30.73
2017-11-06T02:08:53.739Z,26.63
2017-11-06T02:11:22.088Z,32.80
2017-11-06T02:13:50.455Z,30.87
2017-11-06T02:16:18.828Z,32.97
2017-11-06T02:18:47.191Z,46.80
2017-11-06T02:21:15.561Z,36.00
2017-11-06T02:23:43.911Z,35.83
2017-11-06T02:26:12.305Z,40.57
2017-11-06T02:28:40.705Z,40.70
2017-11-06T02:31:09.065Z,39.33
2017-11-06T02:33:37.437Z,30.90
2017-11-06T02:36:05.805Z,29.03
2017-11-06T02:38:34.171Z,34.90
2017-11-06T02:41:02.558Z,32.63
2017-11-06T02:43:30.925Z,33.30
2017-11-06T02:45:59.266Z,30.10
2017-11-06T02:48:27.632Z,38.93
2017-11-06T02:50:56.025Z,31.70
2017-11-06T02:53:24.387Z,26.17
2017-11-06T02:55:52.779Z,43.90
2017-11-06T02:58:21.140Z,33.77
2017-11-06T03:00:49.490Z,34.50
2017-11-06T03:03:17.864Z,35.17
2017-11-06T03:05:46.240Z,39.67
2017-11-06T03:08:14.578Z,42.07
2017-11-06T03:10:42.944Z,36.30
2017-11-06T03:13:11.322Z,33.60
2017-11-06T03:15:39.705Z,35.57
2017-11-06T03:18:08.097Z,35.97
2017-11-06T03:20:36.441Z,45.03
2017-11-06T03:23:04.830Z,41.97
2017-11-06T03:25:33.208Z,39.77
2017-11-06T03:28:01.624Z,42.17
2017-11-06T03:30:29.976Z,38.20
2017-11-06T03:32:58.355Z,45.03
2017-11-06T03:35:26.721Z,54.43
2017-11-06T03:37:55.088Z,50.50
2017-11-06T03:40:23.480Z,43.60
2017-11-06T03:42:51.834Z,39.67
2017-11-06T03:45:20.197Z,48.37
2017-11-06T03:47:48.557Z,45.57
2017-11-06T03:50:16.923Z,40.93
2017-11-06T03:52:45.311Z,47.40
2017-11-06T03:55:13.671Z,50.23
2017-11-06T03:57:42.084Z,40.73
2017-11-06T04:00:10.483Z,40.50
2017-11-06T04:02:38.875Z,41.70
2017-11-06T04:05:07.250Z,37.73
2017-11-06T04:07:35.606Z,40.37
2017-11-06T04:10:04.026Z,41.37
2017-11-06T04:12:32.410Z,36.63
2017-11-06T04:15:00.768Z,40.23
2017-11-06T04:17:29.166Z,40.53
2017-11-06T04:19:57.549Z,47.77
2017-11-06T04:22:25.924Z,39.20
2017-11-06T04:24:54.286Z,43.43
2017-11-06T04:27:22.679Z,33.57
2017-11-06T04:29:51.071Z,34.53
2017-11-06T04:32:19.473Z,34.30
2017-11-06T04:34:47.894Z,33.67
2017-11-06T04:37:16.239Z,32.37
2017-11-06T04:39:44.635Z,31.87
2017-11-06T04:42:13.973Z,31.87
2017-11-06T04:44:42.382Z,33.33
2017-11-06T04:47:10.740Z,38.60
2017-11-06T04:49:39.136Z,36.20
2017-11-06T04:52:07.505Z,38.17
2017-11-06T04:54:35.860Z,39.00
2017-11-06T04:57:04.259Z,39.27
2017-11-06T04:59:32.616Z,32.37
2017-11-06T05:02:00.993Z,41.80
2017-11-06T05:04:29.388Z,51.93
2017-11-06T05:06:57.756Z,40.80
2017-11-06T05:09:26.124Z,38.83
2017-11-06T05:11:54.542Z,36.67
2017-11-06T05:14:22.965Z,33.10
2017-11-06T05:16:51.329Z,33.47
2017-11-06T05:19:19.722Z,33.63
2017-11-06T05:21:48.079Z,33.70
2017-11-06T05:24:16.460Z,35.07
2017-11-06T05:26:44.817Z,38.83
2017-11-06T05:29:13.179Z,39.73
2017-11-06T05:31:41.576Z,37.97
2017-11-06T05:34:09.984Z,46.43
2017-11-06T05:36:38.348Z,39.97
2017-11-06T05:39:06.743Z,34.57
2017-11-06T05:41:35.116Z,25.70
2017-11-06T05:44:03.486Z,31.57
2017-11-06T05:46:31.860Z,34.33
2017-11-06T05:49:00.860Z,38.30
2017-11-06T05:51:29.235Z,38.47
2017-11-06T05:53:57.686Z,37.20
2017-11-06T05:56:26.099Z,31.47
2017-11-06T05:58:54.457Z,33.47
2017-11-06T06:01:22.845Z,38.80
2017-11-06T06:03:51.228Z,34.33
2017-11-06T06:06:19.609Z,33.10
2017-11-06T06:08:47.986Z,30.93
2017-11-06T06:11:16.382Z,40.53
2017-11-06T06:13:44.769Z,33.93
2017-11-06T06:16:13.134Z,37.80
2017-11-06T06:18:41.537Z,33.47
2017-11-06T06:21:09.924Z,35.33
2017-11-06T06:23:38.356Z,30.40
2017-11-06T06:26:06.727Z,29.03
2017-11-06T06:28:35.106Z,34.00
2017-11-06T06:31:03.498Z,31.47
2017-11-06T06:33:31.866Z,28.40
2017-11-06T06:36:00.267Z,30.40
2017-11-06T06:38:28.688Z,26.47
2017-11-06T06:40:57.082Z,27.00
2017-11-06T06:46:00.125Z,30.17
2017-11-06T06:48:28.497Z,24.53
2017-11-06T06:50:56.851Z,25.53
2017-11-06T06:53:25.251Z,28.83
2017-11-06T06:55:53.640Z,29.60
2017-11-06T06:58:22.003Z,32.73
2017-11-06T07:00:50.388Z,37.33
2017-11-06T07:03:18.769Z,36.57
2017-11-06T07:05:47.139Z,37.80
2017-11-06T07:08:15.524Z,30.43
2017-11-06T07:10:43.884Z,32.60
2017-11-06T07:13:12.278Z,33.33
2017-11-06T07:15:40.667Z,31.60
2017-11-06T07:18:09.015Z,34.53
2017-11-06T07:20:37.428Z,32.47
2017-11-06T07:23:05.795Z,22.50
2017-11-06T07:25:34.177Z,28.63
2017-11-06T07:28:02.561Z,42.73
2017-11-06T07:30:30.939Z,37.27
2017-11-06T07:32:59.308Z,36.20
2017-11-06T07:35:27.718Z,28.63
2017-11-06T07:37:56.080Z,32.03
2017-11-06T07:40:24.445Z,32.90
2017-11-06T07:42:52.812Z,35.97
2017-11-06T07:45:21.176Z,34.13
2017-11-06T07:47:49.589Z,29.33
2017-11-06T07:50:18.011Z,32.67
2017-11-06T07:52:46.379Z,31.80
2017-11-06T07:55:14.738Z,29.30
2017-11-06T07:57:43.093Z,35.57
2017-11-06T08:00:11.497Z,33.63
2017-11-06T08:02:39.854Z,36.80
2017-11-06T08:05:08.299Z,37.40
2017-11-06T08:07:36.692Z,39.70
2017-11-06T08:10:05.133Z,31.50
2017-11-06T08:12:33.541Z,30.13
2017-11-06T08:15:01.957Z,36.80
2017-11-06T08:17:30.348Z,34.93
2017-11-06T08:19:58.709Z,46.67
2017-11-06T08:22:27.081Z,29.47
2017-11-06T08:24:55.459Z,37.03
2017-11-06T08:27:23.812Z,30.80
2017-11-06T08:29:52.242Z,36.57
2017-11-06T08:32:20.628Z,38.30
2017-11-06T08:34:49.016Z,29.90
2017-11-06T08:37:17.391Z,28.87
2017-11-06T08:39:45.782Z,31.27
2017-11-06T08:42:14.327Z,30.00
2017-11-06T08:44:42.692Z,27.27
2017-11-06T08:47:11.063Z,39.67
2017-11-06T08:49:39.438Z,30.73
2017-11-06T08:52:07.815Z,31.63
2017-11-06T08:54:36.199Z,27.77
2017-11-06T08:57:04.568Z,23.03
2017-11-06T08:59:32.984Z,26.63
2017-11-06T09:02:01.450Z,25.10
2017-11-06T09:04:29.948Z,29.10
2017-11-06T09:06:58.309Z,30.90
2017-11-06T09:09:26.672Z,26.13
2017-11-06T09:11:55.083Z,31.23
2017-11-06T09:14:23.465Z,26.00
2017-11-06T09:16:51.853Z,26.23
2017-11-06T09:19:20.215Z,24.10
2017-11-06T09:21:48.570Z,16.40
2017-11-06T09:24:16.960Z,19.50
2017-11-06T09:26:45.333Z,20.73
2017-11-06T09:29:13.734Z,19.60
2017-11-06T09:31:42.179Z,20.27
2017-11-06T09:34:10.529Z,20.10
2017-11-06T09:36:38.876Z,22.17
2017-11-06T09:39:07.248Z,19.43
2017-11-06T09:41:35.724Z,16.10
2017-11-06T09:44:04.150Z,14.37
2017-11-06T09:46:32.499Z,14.00
2017-11-06T09:49:00.852Z,13.30
2017-11-06T09:51:29.315Z,11.17
2017-11-06T09:53:57.728Z,12.03
2017-11-06T09:56:26.168Z,13.83
2017-11-06T09:58:54.502Z,13.07
2017-11-06T10:01:23.018Z,16.53
2017-11-06T10:03:51.366Z,12.03
2017-11-06T10:06:19.717Z,12.37
2017-11-06T10:08:48.063Z,9.40
2017-11-06T10:11:16.411Z,10.40
2017-11-06T10:13:44.889Z,10.23
2017-11-06T10:16:13.257Z,12.10
2017-11-06T10:18:41.633Z,12.43
2017-11-06T10:21:09.986Z,12.13
2017-11-06T10:23:38.390Z,16.10
2017-11-06T10:26:06.752Z,10.00
2017-11-06T10:28:35.143Z,8.87
2017-11-06T10:31:03.494Z,11.30
2017-11-06T10:33:31.869Z,14.80
2017-11-06T10:36:00.245Z,10.40
2017-11-06T10:38:28.601Z,10.27
2017-11-06T10:40:56.973Z,12.17
2017-11-06T10:43:25.430Z,9.87
2017-11-06T10:45:53.791Z,10.37
2017-11-06T10:48:22.162Z,26.27
2017-11-06T10:50:50.667Z,11.90
2017-11-06T10:53:19.072Z,11.33
2017-11-06T10:55:47.447Z,14.73
2017-11-06T10:58:15.988Z,12.10
2017-11-06T11:00:44.319Z,15.40
2017-11-06T11:03:12.709Z,13.20
2017-11-06T11:05:41.079Z,14.67
2017-11-06T11:08:09.427Z,12.40
2017-11-06T11:10:37.797Z,18.03
2017-11-06T11:13:06.155Z,13.00
2017-11-06T11:15:34.547Z,14.97
2017-11-06T11:18:02.900Z,12.90
2017-11-06T11:20:31.313Z,11.67
2017-11-06T11:22:59.704Z,15.97
2017-11-06T11:25:28.063Z,10.63
2017-11-06T11:27:56.430Z,10.87
2017-11-06T11:30:24.770Z,9.77
2017-11-06T11:32:53.143Z,11.03
2017-11-06T11:35:21.496Z,8.80
2017-11-06T11:37:49.872Z,17.23
2017-11-06T11:40:18.225Z,8.57
2017-11-06T11:42:46.612Z,8.97
2017-11-06T11:45:15.043Z,13.63
2017-11-06T11:47:43.422Z,10.20
2017-11-06T11:50:11.764Z,6.43
2017-11-06T11:52:40.128Z,6.53
2017-11-06T11:55:08.492Z,11.90
2017-11-06T11:57:36.872Z,8.17
2017-11-06T12:00:05.248Z,10.83
2017-11-06T12:02:33.611Z,7.90
2017-11-06T12:05:01.961Z,15.70
2017-11-06T12:07:30.345Z,10.33
2017-11-06T12:09:58.703Z,7.40
2017-11-06T12:12:27.075Z,9.33
2017-11-06T12:14:55.460Z,9.57
2017-11-06T12:17:23.806Z,11.27
2017-11-06T12:19:52.224Z,8.57
2017-11-06T12:22:20.577Z,9.50
2017-11-06T12:24:48.929Z,9.20
2017-11-06T12:27:17.273Z,9.27
2017-11-06T12:29:45.656Z,6.63
2017-11-06T12:32:14.011Z,6.87
2017-11-06T12:34:42.355Z,8.37
2017-11-06T12:37:10.715Z,7.20
2017-11-06T12:39:39.217Z,11.13
2017-11-06T12:42:07.576Z,12.73
2017-11-06T12:44:35.916Z,7.93
2017-11-06T12:47:04.309Z,7.27
2017-11-06T12:49:32.648Z,8.50
2017-11-06T12:52:16.608Z,10.13
2017-11-06T12:54:47.702Z,9.00
2017-11-06T12:57:16.070Z,7.77
2017-11-06T12:59:49.361Z,7.13
2017-11-06T13:02:20.604Z,8.13
2017-11-06T13:04:49.137Z,8.27
2017-11-06T13:07:17.560Z,12.07
2017-11-06T13:09:47.614Z,4.97
2017-11-06T13:12:19.631Z,6.20
2017-11-06T13:19:27.274Z,5.47
2017-11-06T13:21:55.635Z,10.10
2017-11-06T13:24:24.011Z,6.30
2017-11-06T13:26:55.420Z,6.33
2017-11-06T13:29:26.565Z,9.30
2017-11-06T13:34:46.082Z,6.57
2017-11-06T13:37:18.251Z,5.53
2017-11-06T13:39:50.181Z,7.83
2017-11-06T13:42:26.921Z,6.67
2017-11-06T13:45:04.735Z,7.20
2017-11-06T13:47:34.267Z,3.40
2017-11-06T14:00:53.372Z,4.97
2017-11-06T14:03:21.889Z,2.97
2017-11-06T14:05:53.298Z,3.60
2017-11-06T14:11:01.718Z,9.83
2017-11-06T14:13:32.338Z,8.50
2017-11-06T14:16:01.406Z,7.67
2017-11-06T14:18:29.964Z,13.27
2017-11-06T14:21:00.225Z,7.87
2017-11-06T14:23:36.300Z,9.47
2017-11-06T14:26:07.679Z,6.53
2017-11-06T14:28:43.522Z,8.17
2017-11-06T14:34:14.262Z,10.90
2017-11-06T14:36:56.090Z,7.13
2017-11-06T14:42:21.662Z,9.73
2017-11-06T14:44:57.211Z,11.47
2017-11-06T14:47:25.645Z,21.70
2017-11-06T14:49:54.040Z,12.93
2017-11-06T14:52:22.399Z,17.63
2017-11-06T14:54:50.754Z,19.97
2017-11-06T14:57:19.315Z,14.70
2017-11-06T14:59:47.803Z,9.30
2017-11-06T15:02:17.223Z,11.20
2017-11-06T15:04:45.603Z,15.53
2017-11-06T15:07:13.975Z,11.30
2017-11-06T15:09:42.398Z,7.80
2017-11-06T15:12:10.853Z,8.73
2017-11-06T15:14:40.208Z,5.07
2017-11-06T15:17:08.569Z,3.60
2017-11-06T15:19:36.917Z,6.53
2017-11-06T15:22:05.256Z,5.23
2017-11-06T15:24:33.631Z,8.27
2017-11-06T15:27:01.959Z,4.40
2017-11-06T15:29:30.298Z,7.83
2017-11-06T15:31:58.719Z,6.10
2017-11-06T15:34:27.247Z,5.50
2017-11-06T15:36:55.594Z,8.23
2017-11-06T15:39:23.955Z,7.50
2017-11-06T15:41:52.323Z,7.43
2017-11-06T15:44:20.671Z,8.40
2017-11-06T15:46:49.031Z,12.03
2017-11-06T15:49:17.390Z,10.97
2017-11-06T15:51:45.913Z,10.17
2017-11-06T15:54:14.270Z,8.93
2017-11-06T15:56:42.631Z,6.57
2017-11-06T15:59:11.016Z,11.60
2017-11-06T16:01:39.455Z,9.53
2017-11-06T16:04:07.792Z,8.27
2017-11-06T16:06:36.137Z,7.67
2017-11-06T16:09:05.100Z,3.90
2017-11-06T16:11:33.526Z,4.57
2017-11-06T16:14:01.884Z,5.83
2017-11-06T16:16:30.283Z,11.20
2017-11-06T16:18:58.679Z,10.20
2017-11-06T16:21:27.025Z,10.60
2017-11-06T16:23:55.413Z,25.10
2017-11-06T16:26:23.788Z,7.90
2017-11-06T16:28:52.158Z,6.53
2017-11-06T16:31:20.507Z,11.50
2017-11-06T16:36:23.287Z,12.63
2017-11-06T16:38:51.679Z,10.40
2017-11-06T16:41:20.067Z,6.87
2017-11-06T16:43:48.463Z,17.73
2017-11-06T16:46:16.815Z,14.60
2017-11-06T16:48:45.169Z,14.80
2017-11-06T16:51:13.527Z,24.10
2017-11-06T16:53:41.923Z,17.33
2017-11-06T16:56:10.320Z,16.13
2017-11-06T16:58:38.707Z,24.67
2017-11-06T17:01:07.060Z,19.00
2017-11-06T17:03:35.430Z,22.23
2017-11-06T17:06:03.800Z,20.97
2017-11-06T17:08:32.164Z,24.90
2017-11-06T17:11:02.192Z,33.63
2017-11-06T17:13:46.042Z,22.97
2017-11-06T17:16:20.455Z,24.97
2017-11-06T17:18:54.342Z,22.33
2017-11-06T17:21:22.701Z,26.83
2017-11-06T17:23:51.100Z,33.50
2017-11-06T17:26:19.591Z,28.50
2017-11-06T17:28:47.945Z,31.70
2017-11-06T17:31:16.567Z,31.10
2017-11-06T17:33:44.948Z,31.10
2017-11-06T17:36:13.363Z,21.60
2017-11-06T17:38:41.734Z,24.63
2017-11-06T17:41:10.097Z,31.13
2017-11-06T17:43:38.466Z,24.13
2017-11-06T17:46:06.855Z,32.70
2017-11-06T17:48:35.427Z,28.13
2017-11-06T17:51:03.810Z,26.33
2017-11-06T17:53:33.155Z,28.13
2017-11-06T17:56:01.532Z,34.33
2017-11-06T17:58:29.918Z,29.03
2017-11-06T18:00:58.296Z,30.33
2017-11-06T18:03:26.683Z,32.50
2017-11-06T18:05:56.018Z,40.60
2017-11-06T18:08:24.618Z,40.77
2017-11-06T18:10:53.005Z,35.67
2017-11-06T18:13:21.395Z,50.83
2017-11-06T18:15:49.806Z,41.90
2017-11-06T18:18:18.245Z,34.00
2017-11-06T18:20:46.688Z,27.90
2017-11-06T18:23:15.064Z,28.77
2017-11-06T18:25:43.419Z,24.50
2017-11-06T18:28:11.774Z,29.27
2017-11-06T18:30:40.182Z,20.57
2017-11-06T18:33:10.847Z,21.07
2017-11-06T18:35:40.522Z,23.67
2017-11-06T18:38:08.873Z,24.83
2017-11-06T18:40:37.239Z,23.67
2017-11-06T18:43:05.604Z,21.40
2017-11-06T18:45:33.981Z,22.83
2017-11-06T18:48:02.380Z,14.77
2017-11-06T18:50:30.758Z,20.17
2017-11-06T18:52:59.131Z,29.15
2017-11-06T18:55:27.498Z,20.80
2017-11-06T18:57:55.855Z,21.58
2017-11-06T19:00:24.256Z,43.60
2017-11-06T19:02:52.685Z,75.05
2017-11-06T19:05:21.049Z,25.08
2017-11-06T19:07:49.445Z,32.25
2017-11-06T19:10:17.809Z,34.03
2017-11-06T19:12:46.197Z,23.08
2017-11-06T19:15:14.578Z,31.33
2017-11-06T19:17:42.973Z,26.98
2017-11-06T19:20:11.336Z,18.20
2017-11-06T19:22:39.730Z,20.27
2017-11-06T19:25:08.111Z,18.75
2017-11-06T19:27:36.479Z,14.77
2017-11-06T19:30:05.001Z,13.93
2017-11-06T19:32:33.417Z,15.30
2017-11-06T19:35:03.620Z,14.68
2017-11-06T19:37:31.982Z,17.20
2017-11-06T19:40:00.388Z,12.48
2017-11-06T19:42:28.783Z,17.52
2017-11-06T19:44:57.142Z,10.47
2017-11-06T19:47:25.586Z,11.73
2017-11-06T19:49:53.944Z,14.93
2017-11-06T19:52:22.308Z,18.73
2017-11-06T19:54:50.712Z,10.37
2017-11-06T19:57:19.223Z,16.87
2017-11-06T20:06:47.779Z,18.65
2017-11-06T20:09:16.140Z,19.23
2017-11-06T20:11:44.526Z,23.10
2017-11-06T20:14:12.897Z,23.42
2017-11-06T20:16:41.243Z,19.40
2017-11-06T20:19:09.593Z,20.40
2017-11-06T20:21:37.947Z,22.10
2017-11-06T20:24:06.314Z,21.70
2017-11-06T20:26:34.761Z,18.57
2017-11-06T20:29:03.999Z,27.37
2017-11-06T20:31:32.490Z,23.73
2017-11-06T20:34:00.835Z,20.97
2017-11-06T20:36:29.198Z,24.43
2017-11-06T20:38:57.555Z,21.20
2017-11-06T20:41:25.921Z,20.73
2017-11-06T20:43:54.316Z,19.40
2017-11-06T20:46:22.685Z,23.50
2017-11-06T20:48:51.026Z,29.97
2017-11-06T20:51:19.407Z,21.25
2017-11-06T20:53:48.054Z,21.63
2017-11-06T20:56:17.079Z,23.40
2017-11-06T20:58:45.424Z,19.77
2017-11-06T21:01:13.771Z,19.07
2017-11-06T21:03:42.132Z,23.03
2017-11-06T21:06:10.479Z,19.40
2017-11-06T21:08:38.843Z,17.12
2017-11-06T21:11:07.190Z,17.33
2017-11-06T21:13:35.599Z,21.87
2017-11-06T21:16:04.055Z,24.33
2017-11-06T21:18:32.406Z,26.50
2017-11-06T21:21:00.772Z,29.43
2017-11-06T21:23:29.440Z,39.10
2017-11-06T21:25:57.841Z,38.07
2017-11-06T21:28:26.218Z,33.70
2017-11-06T21:30:54.569Z,42.23
2017-11-06T21:33:23.003Z,39.90
2017-11-06T21:35:51.395Z,29.60
2017-11-06T21:38:19.819Z,29.23
2017-11-06T21:40:48.166Z,39.50
2017-11-06T21:43:16.519Z,34.70
2017-11-06T21:45:44.873Z,26.90
2017-11-06T21:48:13.225Z,23.53
2017-11-06T21:53:16.237Z,18.70
2017-11-06T21:55:44.608Z,18.50
2017-11-06T21:58:12.952Z,16.50
2017-11-06T22:00:41.307Z,20.93
2017-11-06T22:03:09.645Z,17.07
2017-11-06T22:05:38.003Z,15.63
2017-11-06T22:08:06.371Z,18.80
2017-11-06T22:10:34.724Z,15.30
2017-11-06T22:13:03.065Z,16.63
2017-11-06T22:15:31.415Z,16.93
2017-11-06T22:17:59.775Z,18.63
2017-11-06T22:20:28.134Z,23.60
2017-11-06T22:22:56.487Z,20.33
2017-11-06T22:25:24.849Z,18.37
2017-11-06T22:27:53.235Z,16.10
2017-11-06T22:30:21.578Z,17.30
2017-11-06T22:32:49.960Z,18.37
2017-11-06T22:35:18.318Z,18.10
2017-11-06T22:37:46.659Z,21.07
2017-11-06T22:40:15.135Z,18.00
2017-11-06T22:42:43.523Z,17.73
2017-11-06T22:45:11.970Z,21.03
2017-11-06T22:47:40.366Z,21.60
2017-11-06T22:50:08.717Z,22.17
2017-11-06T22:52:37.065Z,25.70
2017-11-06T22:55:05.417Z,23.30
2017-11-06T22:57:33.773Z,22.50
2017-11-06T23:00:02.130Z,22.83
2017-11-06T23:02:30.482Z,25.43
2017-11-06T23:04:58.835Z,20.00
2017-11-06T23:07:27.208Z,18.90
2017-11-06T23:09:55.558Z,25.87
2017-11-06T23:12:23.909Z,22.30
2017-11-06T23:14:52.268Z,22.70
2017-11-06T23:17:20.611Z,24.40
2017-11-06T23:19:48.986Z,32.20
2017-11-06T23:22:17.331Z,24.50
2017-11-06T23:24:45.715Z,22.30
2017-11-06T23:27:14.065Z,26.27
2017-11-06T23:29:42.419Z,23.37
2017-11-06T23:32:10.790Z,24.00
2017-11-06T23:34:39.138Z,22.73
2017-11-06T23:37:07.488Z,23.00
2017-11-06T23:39:35.858Z,23.77
2017-11-06T23:42:04.220Z,28.30
2017-11-06T23:44:32.586Z,25.17
2017-11-06T23:47:00.931Z,28.17
2017-11-06T23:49:29.283Z,30.40
2017-11-06T23:51:57.640Z,27.40
2017-11-06T23:54:26.123Z,28.13
2017-11-06T23:56:54.911Z,27.23
2017-11-06T23:59:23.261Z,33.25
